Brunswick, Georgia
Current Conditions -  °F | °C
As of 6:53 PM on Thursday 18 Dec 2014 (Local Time) from KSSI Reporting Station
Clear Clear  
Wind Chill: 54°   Ceiling: Unl
Heat Index: 54°   Visibility: 10mi
Dew Point: 44°   Wind: 6mph
Humidity: 69%   Direction: 260°W
Pressure: 30.1"   Gusts: NA
Location:  31.15°N, 81.49°W
Report Text: KSSI 182353Z AUTO 26005KT 10SM CLR 12/07 A3010 RMK AO2 SLP193 T01220067 10167 20117 53006
Loading
Personal Weather Stations






























Interactive Weather Map New forecast layout! Learn more

10-Day Weather Forecast

Advertisements
Track Severe Weather on mobile